sensor_id;sensor_type;location;lat;lon;timestamp;temperature;humidity
14370;DHT22;7268;50.792;0.252;2024-02-15T00:02:23;11.70;99.90
14370;DHT22;7268;50.792;0.252;2024-02-15T00:04:50;11.70;99.90
14370;DHT22;7268;50.792;0.252;2024-02-15T00:07:17;11.70;99.90
14370;DHT22;7268;50.792;0.252;2024-02-15T00:09:49;11.70;99.90
14370;DHT22;7268;50.792;0.252;2024-02-15T00:12:16;11.70;99.90
14370;DHT22;7268;50.792;0.252;2024-02-15T00:14:43;11.60;99.90
14370;DHT22;7268;50.792;0.252;2024-02-15T00:17:10;11.50;99.90
14370;DHT22;7268;50.792;0.252;2024-02-15T00:19:38;11.50;99.90
14370;DHT22;7268;50.792;0.252;2024-02-15T00:22:08;11.50;99.90
14370;DHT22;7268;50.792;0.252;2024-02-15T00:24:37;11.50;99.90
14370;DHT22;7268;50.792;0.252;2024-02-15T00:27:05;11.40;99.90
14370;DHT22;7268;50.792;0.252;2024-02-15T00:29:32;11.40;99.90
14370;DHT22;7268;50.792;0.252;2024-02-15T00:32:01;11.40;99.90
14370;DHT22;7268;50.792;0.252;2024-02-15T00:34:30;11.40;99.90
14370;DHT22;7268;50.792;0.252;2024-02-15T00:36:58;11.40;99.90
14370;DHT22;7268;50.792;0.252;2024-02-15T00:39:25;11.40;99.90
14370;DHT22;7268;50.792;0.252;2024-02-15T00:41:51;11.40;99.90
14370;DHT22;7268;50.792;0.252;2024-02-15T00:44:18;11.40;99.90
14370;DHT22;7268;50.792;0.252;2024-02-15T00:46:45;11.40;99.90
14370;DHT22;7268;50.792;0.252;2024-02-15T00:49:14;11.50;99.90
14370;DHT22;7268;50.792;0.252;2024-02-15T00:51:41;11.40;99.90
14370;DHT22;7268;50.792;0.252;2024-02-15T00:54:08;11.40;99.90
14370;DHT22;7268;50.792;0.252;2024-02-15T00:56:35;11.40;99.90
14370;DHT22;7268;50.792;0.252;2024-02-15T00:59:02;11.40;99.90
14370;DHT22;7268;50.792;0.252;2024-02-15T01:01:30;11.40;99.90
14370;DHT22;7268;50.792;0.252;2024-02-15T01:03:57;11.40;99.90
14370;DHT22;7268;50.792;0.252;2024-02-15T01:06:24;11.40;99.90
14370;DHT22;7268;50.792;0.252;2024-02-15T01:08:51;11.40;99.90
14370;DHT22;7268;50.792;0.252;2024-02-15T01:11:18;11.40;99.90
14370;DHT22;7268;50.792;0.252;2024-02-15T01:13:45;11.40;99.90
14370;DHT22;7268;50.792;0.252;2024-02-15T01:16:12;11.40;99.90
14370;DHT22;7268;50.792;0.252;2024-02-15T01:18:39;11.40;99.90
14370;DHT22;7268;50.792;0.252;2024-02-15T01:21:06;11.40;99.90
14370;DHT22;7268;50.792;0.252;2024-02-15T01:23:33;11.40;99.90
14370;DHT22;7268;50.792;0.252;2024-02-15T01:26:03;11.30;99.90
14370;DHT22;7268;50.792;0.252;2024-02-15T01:28:31;11.40;99.90
14370;DHT22;7268;50.792;0.252;2024-02-15T01:30:59;11.40;99.90
14370;DHT22;7268;50.792;0.252;2024-02-15T01:33:26;11.30;99.90
14370;DHT22;7268;50.792;0.252;2024-02-15T01:35:54;11.40;99.90
14370;DHT22;7268;50.792;0.252;2024-02-15T01:38:21;11.40;99.90
14370;DHT22;7268;50.792;0.252;2024-02-15T01:40:48;11.40;99.90
14370;DHT22;7268;50.792;0.252;2024-02-15T01:43:15;11.30;99.90
14370;DHT22;7268;50.792;0.252;2024-02-15T01:45:42;11.40;99.90
14370;DHT22;7268;50.792;0.252;2024-02-15T01:48:10;11.40;99.90
14370;DHT22;7268;50.792;0.252;2024-02-15T01:50:38;11.40;99.90
14370;DHT22;7268;50.792;0.252;2024-02-15T01:53:07;11.40;99.90
14370;DHT22;7268;50.792;0.252;2024-02-15T01:55:35;11.30;99.90
14370;DHT22;7268;50.792;0.252;2024-02-15T01:58:03;11.30;99.90
14370;DHT22;7268;50.792;0.252;2024-02-15T02:00:31;11.30;99.90
14370;DHT22;7268;50.792;0.252;2024-02-15T02:02:58;11.30;99.90
14370;DHT22;7268;50.792;0.252;2024-02-15T02:05:30;11.30;99.90
14370;DHT22;7268;50.792;0.252;2024-02-15T02:07:58;11.30;99.90
14370;DHT22;7268;50.792;0.252;2024-02-15T02:10:28;11.40;99.90
14370;DHT22;7268;50.792;0.252;2024-02-15T02:13:00;11.30;99.90
14370;DHT22;7268;50.792;0.252;2024-02-15T02:15:31;11.30;99.90
14370;DHT22;7268;50.792;0.252;2024-02-15T02:18:00;11.30;99.90
14370;DHT22;7268;50.792;0.252;2024-02-15T02:20:27;11.20;99.90
14370;DHT22;7268;50.792;0.252;2024-02-15T02:23:01;11.20;99.90
14370;DHT22;7268;50.792;0.252;2024-02-15T02:25:33;11.30;99.90
14370;DHT22;7268;50.792;0.252;2024-02-15T02:28:01;11.30;99.90
14370;DHT22;7268;50.792;0.252;2024-02-15T02:30:28;11.30;99.90
14370;DHT22;7268;50.792;0.252;2024-02-15T02:32:59;11.30;99.90
14370;DHT22;7268;50.792;0.252;2024-02-15T02:35:26;11.30;99.90
14370;DHT22;7268;50.792;0.252;2024-02-15T02:37:55;11.30;99.90
14370;DHT22;7268;50.792;0.252;2024-02-15T02:40:22;11.40;99.90
14370;DHT22;7268;50.792;0.252;2024-02-15T02:42:53;11.40;99.90
14370;DHT22;7268;50.792;0.252;2024-02-15T02:45:22;11.40;99.90
14370;DHT22;7268;50.792;0.252;2024-02-15T02:47:51;11.40;99.90
14370;DHT22;7268;50.792;0.252;2024-02-15T02:50:21;11.40;99.90
14370;DHT22;7268;50.792;0.252;2024-02-15T02:52:48;11.50;99.90
14370;DHT22;7268;50.792;0.252;2024-02-15T02:55:16;11.60;99.90
14370;DHT22;7268;50.792;0.252;2024-02-15T02:57:43;11.50;99.90
14370;DHT22;7268;50.792;0.252;2024-02-15T03:00:12;11.50;99.90
14370;DHT22;7268;50.792;0.252;2024-02-15T03:02:40;11.50;99.90
14370;DHT22;7268;50.792;0.252;2024-02-15T03:05:08;11.50;99.90
14370;DHT22;7268;50.792;0.252;2024-02-15T03:07:36;11.50;99.90
14370;DHT22;7268;50.792;0.252;2024-02-15T03:10:04;11.50;99.90
14370;DHT22;7268;50.792;0.252;2024-02-15T03:12:35;11.40;99.90
14370;DHT22;7268;50.792;0.252;2024-02-15T03:15:03;11.40;99.90
14370;DHT22;7268;50.792;0.252;2024-02-15T03:17:30;11.40;99.90
14370;DHT22;7268;50.792;0.252;2024-02-15T03:20:00;11.40;99.90
14370;DHT22;7268;50.792;0.252;2024-02-15T03:22:28;11.40;99.90
14370;DHT22;7268;50.792;0.252;2024-02-15T03:24:56;11.40;99.90
14370;DHT22;7268;50.792;0.252;2024-02-15T03:27:22;11.40;99.90
14370;DHT22;7268;50.792;0.252;2024-02-15T03:29:50;11.40;99.90
14370;DHT22;7268;50.792;0.252;2024-02-15T03:32:18;11.40;99.90
14370;DHT22;7268;50.792;0.252;2024-02-15T03:34:45;11.40;99.90
14370;DHT22;7268;50.792;0.252;2024-02-15T03:37:12;11.40;99.90
14370;DHT22;7268;50.792;0.252;2024-02-15T03:39:39;11.40;99.90
14370;DHT22;7268;50.792;0.252;2024-02-15T03:42:06;11.30;99.90
14370;DHT22;7268;50.792;0.252;2024-02-15T03:44:33;11.30;99.90
14370;DHT22;7268;50.792;0.252;2024-02-15T03:47:01;11.30;99.90
14370;DHT22;7268;50.792;0.252;2024-02-15T03:49:28;11.40;99.90
14370;DHT22;7268;50.792;0.252;2024-02-15T03:51:57;11.40;99.90
14370;DHT22;7268;50.792;0.252;2024-02-15T03:54:26;11.40;99.90
14370;DHT22;7268;50.792;0.252;2024-02-15T03:56:53;11.30;99.90
14370;DHT22;7268;50.792;0.252;2024-02-15T03:59:21;11.30;99.90
14370;DHT22;7268;50.792;0.252;2024-02-15T04:01:54;11.30;99.90
14370;DHT22;7268;50.792;0.252;2024-02-15T04:04:21;11.30;99.90
14370;DHT22;7268;50.792;0.252;2024-02-15T04:06:49;11.30;99.90
14370;DHT22;7268;50.792;0.252;2024-02-15T04:09:15;11.30;99.90
14370;DHT22;7268;50.792;0.252;2024-02-15T04:11:44;11.30;99.90
14370;DHT22;7268;50.792;0.252;2024-02-15T04:14:13;11.30;99.90
14370;DHT22;7268;50.792;0.252;2024-02-15T04:16:40;11.30;99.90
14370;DHT22;7268;50.792;0.252;2024-02-15T04:19:07;11.30;99.90
14370;DHT22;7268;50.792;0.252;2024-02-15T04:21:34;11.30;99.90
14370;DHT22;7268;50.792;0.252;2024-02-15T04:24:01;11.30;99.90
14370;DHT22;7268;50.792;0.252;2024-02-15T04:26:28;11.30;99.90
14370;DHT22;7268;50.792;0.252;2024-02-15T04:28:56;11.40;99.90
14370;DHT22;7268;50.792;0.252;2024-02-15T04:31:25;11.30;99.90
14370;DHT22;7268;50.792;0.252;2024-02-15T04:33:55;11.30;99.90
14370;DHT22;7268;50.792;0.252;2024-02-15T04:36:22;11.30;99.90
14370;DHT22;7268;50.792;0.252;2024-02-15T04:38:53;11.30;99.90
14370;DHT22;7268;50.792;0.252;2024-02-15T04:41:20;11.30;99.90
14370;DHT22;7268;50.792;0.252;2024-02-15T04:43:50;11.30;99.90
14370;DHT22;7268;50.792;0.252;2024-02-15T04:46:18;11.20;99.90
14370;DHT22;7268;50.792;0.252;2024-02-15T04:48:51;11.30;99.90
14370;DHT22;7268;50.792;0.252;2024-02-15T04:51:18;11.30;99.90
14370;DHT22;7268;50.792;0.252;2024-02-15T04:53:47;11.30;99.90
14370;DHT22;7268;50.792;0.252;2024-02-15T04:56:14;11.30;99.90
14370;DHT22;7268;50.792;0.252;2024-02-15T04:58:43;11.30;99.90
14370;DHT22;7268;50.792;0.252;2024-02-15T05:01:15;11.30;99.90
14370;DHT22;7268;50.792;0.252;2024-02-15T05:03:45;11.40;99.90
14370;DHT22;7268;50.792;0.252;2024-02-15T05:06:12;11.40;99.90
14370;DHT22;7268;50.792;0.252;2024-02-15T05:08:39;11.40;99.90
14370;DHT22;7268;50.792;0.252;2024-02-15T05:11:13;11.40;99.90
14370;DHT22;7268;50.792;0.252;2024-02-15T05:13:46;11.40;99.90
14370;DHT22;7268;50.792;0.252;2024-02-15T05:16:13;11.50;99.90
14370;DHT22;7268;50.792;0.252;2024-02-15T05:18:40;11.50;99.90
14370;DHT22;7268;50.792;0.252;2024-02-15T05:21:08;11.60;99.90
14370;DHT22;7268;50.792;0.252;2024-02-15T05:23:40;11.60;99.90
14370;DHT22;7268;50.792;0.252;2024-02-15T05:26:08;11.60;99.90
14370;DHT22;7268;50.792;0.252;2024-02-15T05:28:36;11.60;99.90
14370;DHT22;7268;50.792;0.252;2024-02-15T05:31:19;11.60;99.90
14370;DHT22;7268;50.792;0.252;2024-02-15T05:33:47;11.60;99.90
14370;DHT22;7268;50.792;0.252;2024-02-15T05:36:15;11.60;99.90
14370;DHT22;7268;50.792;0.252;2024-02-15T05:38:43;11.60;99.90
14370;DHT22;7268;50.792;0.252;2024-02-15T05:41:12;11.60;99.90
14370;DHT22;7268;50.792;0.252;2024-02-15T05:43:40;11.60;99.90
14370;DHT22;7268;50.792;0.252;2024-02-15T05:46:09;11.60;99.90
14370;DHT22;7268;50.792;0.252;2024-02-15T05:48:37;11.60;99.90
14370;DHT22;7268;50.792;0.252;2024-02-15T05:51:05;11.70;99.90
14370;DHT22;7268;50.792;0.252;2024-02-15T05:53:32;11.70;99.90
14370;DHT22;7268;50.792;0.252;2024-02-15T05:56:03;11.80;99.90
14370;DHT22;7268;50.792;0.252;2024-02-15T05:58:41;11.80;99.90
14370;DHT22;7268;50.792;0.252;2024-02-15T06:01:08;11.80;99.90
14370;DHT22;7268;50.792;0.252;2024-02-15T06:03:38;11.80;99.90
14370;DHT22;7268;50.792;0.252;2024-02-15T06:06:07;11.90;99.90
14370;DHT22;7268;50.792;0.252;2024-02-15T06:08:35;11.90;99.90
14370;DHT22;7268;50.792;0.252;2024-02-15T06:11:03;11.90;99.90
14370;DHT22;7268;50.792;0.252;2024-02-15T06:13:31;12.00;99.90
14370;DHT22;7268;50.792;0.252;2024-02-15T06:15:58;12.00;99.90
14370;DHT22;7268;50.792;0.252;2024-02-15T06:18:27;12.00;99.90
14370;DHT22;7268;50.792;0.252;2024-02-15T06:20:56;12.00;99.90
14370;DHT22;7268;50.792;0.252;2024-02-15T06:23:27;12.00;99.90
14370;DHT22;7268;50.792;0.252;2024-02-15T06:25:56;12.00;99.90
14370;DHT22;7268;50.792;0.252;2024-02-15T06:28:25;12.00;99.90
14370;DHT22;7268;50.792;0.252;2024-02-15T06:31:11;11.90;99.90
14370;DHT22;7268;50.792;0.252;2024-02-15T06:33:57;11.90;99.90
14370;DHT22;7268;50.792;0.252;2024-02-15T06:39:32;11.80;99.90
14370;DHT22;7268;50.792;0.252;2024-02-15T06:42:15;11.70;99.90
14370;DHT22;7268;50.792;0.252;2024-02-15T06:44:47;11.70;99.90
14370;DHT22;7268;50.792;0.252;2024-02-15T06:47:15;11.70;99.90
14370;DHT22;7268;50.792;0.252;2024-02-15T06:49:46;11.60;99.90
14370;DHT22;7268;50.792;0.252;2024-02-15T06:52:13;11.60;99.90
14370;DHT22;7268;50.792;0.252;2024-02-15T06:54:41;11.60;99.90
14370;DHT22;7268;50.792;0.252;2024-02-15T06:57:09;11.60;99.90
14370;DHT22;7268;50.792;0.252;2024-02-15T06:59:36;11.60;99.90
14370;DHT22;7268;50.792;0.252;2024-02-15T07:02:05;11.60;99.90
14370;DHT22;7268;50.792;0.252;2024-02-15T07:04:35;11.60;99.90
14370;DHT22;7268;50.792;0.252;2024-02-15T07:07:04;11.60;99.90
14370;DHT22;7268;50.792;0.252;2024-02-15T07:09:31;11.60;99.90
14370;DHT22;7268;50.792;0.252;2024-02-15T07:11:59;11.70;99.90
14370;DHT22;7268;50.792;0.252;2024-02-15T07:14:28;11.80;99.90
14370;DHT22;7268;50.792;0.252;2024-02-15T07:16:56;11.90;99.90
14370;DHT22;7268;50.792;0.252;2024-02-15T07:19:25;12.00;99.90
14370;DHT22;7268;50.792;0.252;2024-02-15T07:21:54;12.10;99.90
14370;DHT22;7268;50.792;0.252;2024-02-15T07:24:24;12.10;99.90
14370;DHT22;7268;50.792;0.252;2024-02-15T07:26:54;12.20;99.90
14370;DHT22;7268;50.792;0.252;2024-02-15T07:29:24;12.20;99.90
14370;DHT22;7268;50.792;0.252;2024-02-15T07:31:52;12.20;99.90
14370;DHT22;7268;50.792;0.252;2024-02-15T07:34:19;12.20;99.90
14370;DHT22;7268;50.792;0.252;2024-02-15T07:36:46;12.30;99.90
14370;DHT22;7268;50.792;0.252;2024-02-15T07:39:13;12.30;99.90
14370;DHT22;7268;50.792;0.252;2024-02-15T07:41:53;12.30;99.90
14370;DHT22;7268;50.792;0.252;2024-02-15T07:44:21;12.30;99.90
14370;DHT22;7268;50.792;0.252;2024-02-15T07:46:51;12.30;99.90
14370;DHT22;7268;50.792;0.252;2024-02-15T07:49:18;12.30;99.90
14370;DHT22;7268;50.792;0.252;2024-02-15T07:51:45;12.30;99.90
14370;DHT22;7268;50.792;0.252;2024-02-15T07:54:23;12.40;99.90
14370;DHT22;7268;50.792;0.252;2024-02-15T07:56:50;12.40;99.90
14370;DHT22;7268;50.792;0.252;2024-02-15T07:59:18;12.40;99.90
14370;DHT22;7268;50.792;0.252;2024-02-15T08:01:45;12.50;99.90
14370;DHT22;7268;50.792;0.252;2024-02-15T08:04:14;12.50;99.90
14370;DHT22;7268;50.792;0.252;2024-02-15T08:06:44;12.50;99.90
14370;DHT22;7268;50.792;0.252;2024-02-15T08:09:11;12.50;99.90
14370;DHT22;7268;50.792;0.252;2024-02-15T08:11:40;12.50;99.90
14370;DHT22;7268;50.792;0.252;2024-02-15T08:14:08;12.60;99.90
14370;DHT22;7268;50.792;0.252;2024-02-15T08:16:40;12.60;99.90
14370;DHT22;7268;50.792;0.252;2024-02-15T08:19:08;12.60;99.90
14370;DHT22;7268;50.792;0.252;2024-02-15T08:21:35;12.70;99.90
14370;DHT22;7268;50.792;0.252;2024-02-15T08:24:05;12.80;99.90
14370;DHT22;7268;50.792;0.252;2024-02-15T08:26:35;12.80;99.90
14370;DHT22;7268;50.792;0.252;2024-02-15T08:29:02;12.90;99.90
14370;DHT22;7268;50.792;0.252;2024-02-15T08:31:30;13.00;99.90
14370;DHT22;7268;50.792;0.252;2024-02-15T08:34:06;13.10;99.90
14370;DHT22;7268;50.792;0.252;2024-02-15T08:36:33;13.10;99.90
14370;DHT22;7268;50.792;0.252;2024-02-15T08:39:00;13.20;99.90
14370;DHT22;7268;50.792;0.252;2024-02-15T08:41:28;13.30;99.90
14370;DHT22;7268;50.792;0.252;2024-02-15T08:43:55;13.30;99.90
14370;DHT22;7268;50.792;0.252;2024-02-15T08:46:24;13.50;99.90
14370;DHT22;7268;50.792;0.252;2024-02-15T08:48:53;13.60;99.90
14370;DHT22;7268;50.792;0.252;2024-02-15T08:51:20;13.70;99.90
14370;DHT22;7268;50.792;0.252;2024-02-15T08:53:51;13.80;99.90
14370;DHT22;7268;50.792;0.252;2024-02-15T08:56:18;13.80;99.90
14370;DHT22;7268;50.792;0.252;2024-02-15T08:58:45;13.80;99.90
14370;DHT22;7268;50.792;0.252;2024-02-15T09:01:12;13.80;99.90
14370;DHT22;7268;50.792;0.252;2024-02-15T09:03:40;14.20;99.90
14370;DHT22;7268;50.792;0.252;2024-02-15T09:06:07;14.50;99.90
14370;DHT22;7268;50.792;0.252;2024-02-15T09:08:35;14.70;99.90
14370;DHT22;7268;50.792;0.252;2024-02-15T09:11:02;14.90;99.90
14370;DHT22;7268;50.792;0.252;2024-02-15T09:13:32;14.90;99.90
14370;DHT22;7268;50.792;0.252;2024-02-15T09:16:01;15.00;99.90
14370;DHT22;7268;50.792;0.252;2024-02-15T09:18:30;14.90;99.90
14370;DHT22;7268;50.792;0.252;2024-02-15T09:20:56;14.80;99.90
14370;DHT22;7268;50.792;0.252;2024-02-15T09:23:24;14.60;99.90
14370;DHT22;7268;50.792;0.252;2024-02-15T09:25:51;14.60;99.90
14370;DHT22;7268;50.792;0.252;2024-02-15T09:28:18;14.70;99.90
14370;DHT22;7268;50.792;0.252;2024-02-15T09:30:49;14.60;99.90
14370;DHT22;7268;50.792;0.252;2024-02-15T09:33:19;15.30;99.90
14370;DHT22;7268;50.792;0.252;2024-02-15T09:35:46;16.30;99.90
14370;DHT22;7268;50.792;0.252;2024-02-15T09:38:13;17.00;99.90
14370;DHT22;7268;50.792;0.252;2024-02-15T09:40:43;17.20;99.90
14370;DHT22;7268;50.792;0.252;2024-02-15T09:43:11;17.40;99.90
14370;DHT22;7268;50.792;0.252;2024-02-15T09:45:40;18.10;99.90
14370;DHT22;7268;50.792;0.252;2024-02-15T09:48:09;18.90;98.10
14370;DHT22;7268;50.792;0.252;2024-02-15T09:50:39;19.20;96.30
14370;DHT22;7268;50.792;0.252;2024-02-15T09:53:15;19.60;95.40
14370;DHT22;7268;50.792;0.252;2024-02-15T09:55:42;20.10;94.30
14370;DHT22;7268;50.792;0.252;2024-02-15T09:58:10;20.40;94.10
14370;DHT22;7268;50.792;0.252;2024-02-15T10:00:39;21.50;93.50
14370;DHT22;7268;50.792;0.252;2024-02-15T10:03:06;20.80;90.90
14370;DHT22;7268;50.792;0.252;2024-02-15T10:05:34;19.70;93.10
14370;DHT22;7268;50.792;0.252;2024-02-15T10:08:02;19.00;94.50
14370;DHT22;7268;50.792;0.252;2024-02-15T10:10:30;19.00;94.80
14370;DHT22;7268;50.792;0.252;2024-02-15T10:12:57;18.80;94.70
14370;DHT22;7268;50.792;0.252;2024-02-15T10:15:33;18.70;94.30
14370;DHT22;7268;50.792;0.252;2024-02-15T10:18:11;18.40;95.70
14370;DHT22;7268;50.792;0.252;2024-02-15T10:20:40;18.00;95.60
14370;DHT22;7268;50.792;0.252;2024-02-15T10:23:15;17.30;96.80
14370;DHT22;7268;50.792;0.252;2024-02-15T10:25:45;17.50;97.50
14370;DHT22;7268;50.792;0.252;2024-02-15T10:28:14;17.10;97.70
14370;DHT22;7268;50.792;0.252;2024-02-15T10:30:43;16.50;97.90
14370;DHT22;7268;50.792;0.252;2024-02-15T10:33:29;16.40;99.00
14370;DHT22;7268;50.792;0.252;2024-02-15T10:36:10;16.00;99.70
14370;DHT22;7268;50.792;0.252;2024-02-15T10:38:41;15.90;99.90
14370;DHT22;7268;50.792;0.252;2024-02-15T10:41:08;15.70;99.90
14370;DHT22;7268;50.792;0.252;2024-02-15T10:43:37;15.70;99.90
14370;DHT22;7268;50.792;0.252;2024-02-15T10:46:05;15.80;99.90
14370;DHT22;7268;50.792;0.252;2024-02-15T10:48:36;15.90;99.90
14370;DHT22;7268;50.792;0.252;2024-02-15T10:51:10;15.70;99.90
14370;DHT22;7268;50.792;0.252;2024-02-15T10:53:47;15.50;99.90
14370;DHT22;7268;50.792;0.252;2024-02-15T10:56:18;15.40;99.90
14370;DHT22;7268;50.792;0.252;2024-02-15T10:58:50;15.50;99.90
14370;DHT22;7268;50.792;0.252;2024-02-15T11:01:22;15.50;99.90
14370;DHT22;7268;50.792;0.252;2024-02-15T11:03:51;15.30;99.90
14370;DHT22;7268;50.792;0.252;2024-02-15T11:06:24;15.20;99.90
14370;DHT22;7268;50.792;0.252;2024-02-15T11:08:53;15.20;99.90
14370;DHT22;7268;50.792;0.252;2024-02-15T11:11:21;15.30;99.90
14370;DHT22;7268;50.792;0.252;2024-02-15T11:13:48;15.20;99.90
14370;DHT22;7268;50.792;0.252;2024-02-15T11:16:43;15.10;99.90
14370;DHT22;7268;50.792;0.252;2024-02-15T11:19:10;15.10;99.90
14370;DHT22;7268;50.792;0.252;2024-02-15T11:21:58;15.10;99.90
14370;DHT22;7268;50.792;0.252;2024-02-15T11:24:29;15.10;99.90
14370;DHT22;7268;50.792;0.252;2024-02-15T11:26:59;15.20;99.90
14370;DHT22;7268;50.792;0.252;2024-02-15T11:29:52;15.30;99.90
14370;DHT22;7268;50.792;0.252;2024-02-15T11:32:48;15.40;99.90
14370;DHT22;7268;50.792;0.252;2024-02-15T11:35:24;15.30;99.90
14370;DHT22;7268;50.792;0.252;2024-02-15T11:37:59;15.30;99.90
14370;DHT22;7268;50.792;0.252;2024-02-15T11:44:04;15.40;99.90
14370;DHT22;7268;50.792;0.252;2024-02-15T11:46:27;15.10;99.90
14370;DHT22;7268;50.792;0.252;2024-02-15T11:48:59;15.00;99.90
14370;DHT22;7268;50.792;0.252;2024-02-15T11:51:28;15.00;99.90
14370;DHT22;7268;50.792;0.252;2024-02-15T11:54:20;15.10;99.90
14370;DHT22;7268;50.792;0.252;2024-02-15T11:56:52;15.10;99.90
14370;DHT22;7268;50.792;0.252;2024-02-15T11:59:21;15.10;99.90
14370;DHT22;7268;50.792;0.252;2024-02-15T12:02:09;15.20;99.90
14370;DHT22;7268;50.792;0.252;2024-02-15T12:04:57;15.40;99.90
14370;DHT22;7268;50.792;0.252;2024-02-15T12:07:43;15.30;99.90
14370;DHT22;7268;50.792;0.252;2024-02-15T12:10:28;15.40;99.90
14370;DHT22;7268;50.792;0.252;2024-02-15T12:13:18;16.20;99.90
14370;DHT22;7268;50.792;0.252;2024-02-15T12:16:04;17.20;98.10
14370;DHT22;7268;50.792;0.252;2024-02-15T12:18:49;17.40;97.60
14370;DHT22;7268;50.792;0.252;2024-02-15T12:21:23;17.40;97.30
14370;DHT22;7268;50.792;0.252;2024-02-15T12:23:52;16.90;97.80
14370;DHT22;7268;50.792;0.252;2024-02-15T12:26:20;16.80;98.80
14370;DHT22;7268;50.792;0.252;2024-02-15T12:28:50;17.00;98.60
14370;DHT22;7268;50.792;0.252;2024-02-15T12:31:18;17.00;98.40
14370;DHT22;7268;50.792;0.252;2024-02-15T12:33:45;16.80;98.00
14370;DHT22;7268;50.792;0.252;2024-02-15T12:36:13;16.60;98.50
14370;DHT22;7268;50.792;0.252;2024-02-15T12:38:40;16.40;98.70
14370;DHT22;7268;50.792;0.252;2024-02-15T12:41:20;16.50;98.60
14370;DHT22;7268;50.792;0.252;2024-02-15T12:43:52;16.10;99.10
14370;DHT22;7268;50.792;0.252;2024-02-15T12:46:19;15.90;99.90
14370;DHT22;7268;50.792;0.252;2024-02-15T12:48:47;15.70;99.90
14370;DHT22;7268;50.792;0.252;2024-02-15T12:51:14;15.40;99.90
14370;DHT22;7268;50.792;0.252;2024-02-15T12:53:41;15.40;99.90
14370;DHT22;7268;50.792;0.252;2024-02-15T12:56:09;15.30;99.90
14370;DHT22;7268;50.792;0.252;2024-02-15T12:58:41;15.30;99.90
14370;DHT22;7268;50.792;0.252;2024-02-15T13:01:09;15.20;99.90
14370;DHT22;7268;50.792;0.252;2024-02-15T13:03:38;15.30;99.90
14370;DHT22;7268;50.792;0.252;2024-02-15T13:06:05;15.30;99.90
14370;DHT22;7268;50.792;0.252;2024-02-15T13:08:32;15.30;99.90
14370;DHT22;7268;50.792;0.252;2024-02-15T13:11:01;15.30;99.90
14370;DHT22;7268;50.792;0.252;2024-02-15T13:13:30;15.10;99.90
14370;DHT22;7268;50.792;0.252;2024-02-15T13:15:57;15.10;99.90
14370;DHT22;7268;50.792;0.252;2024-02-15T13:18:24;15.20;99.90
14370;DHT22;7268;50.792;0.252;2024-02-15T13:20:53;15.20;99.90
14370;DHT22;7268;50.792;0.252;2024-02-15T13:23:20;15.40;99.90
14370;DHT22;7268;50.792;0.252;2024-02-15T13:25:53;15.40;99.90
14370;DHT22;7268;50.792;0.252;2024-02-15T13:28:20;15.40;99.90
14370;DHT22;7268;50.792;0.252;2024-02-15T13:30:47;15.60;99.90
14370;DHT22;7268;50.792;0.252;2024-02-15T13:33:16;15.50;99.90
14370;DHT22;7268;50.792;0.252;2024-02-15T13:35:44;15.60;99.90
14370;DHT22;7268;50.792;0.252;2024-02-15T13:38:12;15.70;99.90
14370;DHT22;7268;50.792;0.252;2024-02-15T13:40:49;15.70;99.90
14370;DHT22;7268;50.792;0.252;2024-02-15T13:43:18;15.70;99.90
14370;DHT22;7268;50.792;0.252;2024-02-15T13:45:46;15.60;99.90
14370;DHT22;7268;50.792;0.252;2024-02-15T13:48:13;15.50;99.90
14370;DHT22;7268;50.792;0.252;2024-02-15T13:50:42;15.30;99.90
14370;DHT22;7268;50.792;0.252;2024-02-15T13:53:10;15.30;99.90
14370;DHT22;7268;50.792;0.252;2024-02-15T13:55:37;15.30;99.90
14370;DHT22;7268;50.792;0.252;2024-02-15T13:58:04;15.50;99.90
14370;DHT22;7268;50.792;0.252;2024-02-15T14:00:31;15.50;99.90
14370;DHT22;7268;50.792;0.252;2024-02-15T14:03:02;15.40;99.90
14370;DHT22;7268;50.792;0.252;2024-02-15T14:05:31;15.40;99.90
14370;DHT22;7268;50.792;0.252;2024-02-15T14:08:02;15.40;99.90
14370;DHT22;7268;50.792;0.252;2024-02-15T14:10:30;15.50;99.90
14370;DHT22;7268;50.792;0.252;2024-02-15T14:12:57;15.30;99.90
14370;DHT22;7268;50.792;0.252;2024-02-15T14:15:38;15.30;99.90
14370;DHT22;7268;50.792;0.252;2024-02-15T14:18:10;15.30;99.90
14370;DHT22;7268;50.792;0.252;2024-02-15T14:20:38;15.30;99.90
14370;DHT22;7268;50.792;0.252;2024-02-15T14:23:05;15.20;99.90
14370;DHT22;7268;50.792;0.252;2024-02-15T14:25:33;15.30;99.90
14370;DHT22;7268;50.792;0.252;2024-02-15T14:28:01;15.30;99.90
14370;DHT22;7268;50.792;0.252;2024-02-15T14:30:29;15.30;99.90
14370;DHT22;7268;50.792;0.252;2024-02-15T14:33:15;15.50;99.90
14370;DHT22;7268;50.792;0.252;2024-02-15T14:35:46;15.50;99.90
14370;DHT22;7268;50.792;0.252;2024-02-15T14:38:14;15.40;99.90
14370;DHT22;7268;50.792;0.252;2024-02-15T14:40:45;15.40;99.90
14370;DHT22;7268;50.792;0.252;2024-02-15T14:43:15;15.50;99.90
14370;DHT22;7268;50.792;0.252;2024-02-15T14:45:45;15.60;99.90
14370;DHT22;7268;50.792;0.252;2024-02-15T14:48:13;15.60;99.40
14370;DHT22;7268;50.792;0.252;2024-02-15T14:50:41;15.80;99.60
14370;DHT22;7268;50.792;0.252;2024-02-15T14:53:08;15.70;99.60
14370;DHT22;7268;50.792;0.252;2024-02-15T14:55:36;15.70;99.70
14370;DHT22;7268;50.792;0.252;2024-02-15T14:58:09;15.70;99.50
14370;DHT22;7268;50.792;0.252;2024-02-15T15:00:40;15.70;99.60
14370;DHT22;7268;50.792;0.252;2024-02-15T15:03:12;15.70;99.80
14370;DHT22;7268;50.792;0.252;2024-02-15T15:05:43;15.70;99.80
14370;DHT22;7268;50.792;0.252;2024-02-15T15:08:29;15.70;99.90
14370;DHT22;7268;50.792;0.252;2024-02-15T15:11:15;15.70;99.90
14370;DHT22;7268;50.792;0.252;2024-02-15T15:14:01;15.70;99.80
14370;DHT22;7268;50.792;0.252;2024-02-15T15:16:31;15.60;99.70
14370;DHT22;7268;50.792;0.252;2024-02-15T15:18:58;15.50;99.50
14370;DHT22;7268;50.792;0.252;2024-02-15T15:21:25;15.30;99.90
14370;DHT22;7268;50.792;0.252;2024-02-15T15:23:55;15.10;99.90
14370;DHT22;7268;50.792;0.252;2024-02-15T15:26:23;14.90;99.90
14370;DHT22;7268;50.792;0.252;2024-02-15T15:28:50;14.80;99.90
14370;DHT22;7268;50.792;0.252;2024-02-15T15:31:17;14.80;99.90
14370;DHT22;7268;50.792;0.252;2024-02-15T15:33:47;14.70;99.90
14370;DHT22;7268;50.792;0.252;2024-02-15T15:36:17;14.70;99.90
14370;DHT22;7268;50.792;0.252;2024-02-15T15:38:46;14.70;99.90
14370;DHT22;7268;50.792;0.252;2024-02-15T15:41:13;14.70;99.90
14370;DHT22;7268;50.792;0.252;2024-02-15T15:43:42;14.60;99.90
14370;DHT22;7268;50.792;0.252;2024-02-15T15:46:15;14.60;99.90
14370;DHT22;7268;50.792;0.252;2024-02-15T15:48:43;14.60;99.90
14370;DHT22;7268;50.792;0.252;2024-02-15T15:51:13;14.50;99.90
14370;DHT22;7268;50.792;0.252;2024-02-15T15:53:41;14.40;99.90
14370;DHT22;7268;50.792;0.252;2024-02-15T15:56:09;14.20;99.90
14370;DHT22;7268;50.792;0.252;2024-02-15T15:58:36;14.10;99.90
14370;DHT22;7268;50.792;0.252;2024-02-15T16:01:03;13.90;99.90
14370;DHT22;7268;50.792;0.252;2024-02-15T16:03:31;13.80;99.90
14370;DHT22;7268;50.792;0.252;2024-02-15T16:05:58;13.70;99.90
14370;DHT22;7268;50.792;0.252;2024-02-15T16:08:26;13.70;99.90